Time;durP1;ratioP1;P1;durP2;ratioP2;P2;SDS_P1;SDS_P2;PMS_P1;PMS_P2;Temp;Humidity;BMP_temperature;BMP_pressure;BME280_temperature;BME280_humidity;BME280_pressure;Samples;Min_cycle;Max_cycle;Signal;HPM_P1;HPM_P2
2019/12/11 00:00:34;;;;;;;11.9;4.6;;;;;;;-3.53;88.52637;95658.45;;;;
2019/12/11 00:01:35;;;;;;;11.9;4.6;;;;;;;-3.53;88.52637;95658.45;;;;
2019/12/11 00:02:36;;;;;;;11.9;4.6;;;;;;;-3.53;88.52637;95658.45;;;;
2019/12/11 00:03:38;;;;;;;11.9;4.6;;;;;;;-3.53;88.52637;95658.45;;;;
2019/12/11 00:04:39;;;;;;;11.9;4.6;;;;;;;-3.53;88.52637;95658.45;;;;
2019/12/11 00:05:41;;;;;;;11.9;4.6;;;;;;;-3.53;88.52637;95658.45;;;;
2019/12/11 00:06:42;;;;;;;11.9;4.6;;;;;;;-3.53;88.52637;95658.45;;;;
2019/12/11 00:07:43;;;;;;;11.9;4.6;;;;;;;-3.53;88.52637;95658.45;;;;
2019/12/11 00:08:44;;;;;;;11.9;4.6;;;;;;;-3.53;88.52637;95658.45;;;;
2019/12/11 00:09:47;;;;;;;8.949999;4.299999;;;;;;;-3.66;88.49902;95639.01;;;;
2019/12/11 00:10:49;;;;;;;8.949999;4.299999;;;;;;;-3.66;88.49902;95639.01;;;;
2019/12/11 00:11:50;;;;;;;8.949999;4.299999;;;;;;;-3.66;88.49902;95639.01;;;;
2019/12/11 00:12:51;;;;;;;8.949999;4.299999;;;;;;;-3.66;88.49902;95639.01;;;;
2019/12/11 00:13:52;;;;;;;8.949999;4.299999;;;;;;;-3.66;88.49902;95639.01;;;;
2019/12/11 00:14:53;;;;;;;8.949999;4.299999;;;;;;;-3.66;88.49902;95639.01;;;;
2019/12/11 00:15:56;;;;;;;8.949999;4.299999;;;;;;;-3.66;88.49902;95639.01;;;;
2019/12/11 00:24:29;;;;;;;8.150001;3.999999;;;;;;;-3.84;88.69824;95609.9;;;;
2019/12/11 00:25:42;;;;;;;8.150001;3.999999;;;;;;;-3.84;88.69824;95609.9;;;;
2019/12/11 00:26:44;;;;;;;8.150001;3.999999;;;;;;;-3.84;88.69824;95609.9;;;;
2019/12/11 00:27:45;;;;;;;8.150001;3.999999;;;;;;;-3.84;88.69824;95609.9;;;;
2019/12/11 00:28:46;;;;;;;8.150001;3.999999;;;;;;;-3.84;88.69824;95609.9;;;;
2019/12/11 00:29:47;;;;;;;8.150001;3.999999;;;;;;;-3.84;88.69824;95609.9;;;;
2019/12/11 00:30:48;;;;;;;8.150001;3.999999;;;;;;;-3.84;88.69824;95609.9;;;;
2019/12/11 00:31:49;;;;;;;6.55;3.85;;;;;;;-3.8;88.74707;95587.13;;;;
2019/12/11 00:32:50;;;;;;;6.55;3.85;;;;;;;-3.8;88.74707;95587.13;;;;
2019/12/11 00:33:51;;;;;;;6.55;3.85;;;;;;;-3.8;88.74707;95587.13;;;;
2019/12/11 00:34:52;;;;;;;6.55;3.85;;;;;;;-3.8;88.74707;95587.13;;;;
2019/12/11 00:35:53;;;;;;;6.55;3.85;;;;;;;-3.8;88.74707;95587.13;;;;
2019/12/11 00:36:54;;;;;;;6.55;3.85;;;;;;;-3.8;88.74707;95587.13;;;;
2019/12/11 00:37:56;;;;;;;6.55;3.85;;;;;;;-3.8;88.74707;95587.13;;;;
2019/12/11 00:38:57;;;;;;;6.55;3.85;;;;;;;-3.8;88.74707;95587.13;;;;
2019/12/11 00:39:58;;;;;;;6.55;3.85;;;;;;;-3.8;88.74707;95587.13;;;;
2019/12/11 00:40:59;;;;;;;6.55;3.85;;;;;;;-3.8;88.74707;95587.13;;;;
2019/12/11 00:42:00;;;;;;;7.7;3.5;;;;;;;-3.86;88.73535;95580.19;;;;
2019/12/11 00:43:01;;;;;;;7.7;3.5;;;;;;;-3.86;88.73535;95580.19;;;;
2019/12/11 00:44:02;;;;;;;7.7;3.5;;;;;;;-3.86;88.73535;95580.19;;;;
2019/12/11 00:45:03;;;;;;;7.7;3.5;;;;;;;-3.86;88.73535;95580.19;;;;
2019/12/11 00:46:04;;;;;;;7.7;3.5;;;;;;;-3.86;88.73535;95580.19;;;;
2019/12/11 00:47:05;;;;;;;7.7;3.5;;;;;;;-3.86;88.73535;95580.19;;;;
2019/12/11 00:48:06;;;;;;;7.7;3.5;;;;;;;-3.86;88.73535;95580.19;;;;
2019/12/11 00:49:08;;;;;;;7.7;3.5;;;;;;;-3.86;88.73535;95580.19;;;;
2019/12/11 00:50:09;;;;;;;7.7;3.5;;;;;;;-3.86;88.73535;95580.19;;;;
2019/12/11 00:51:10;;;;;;;7.7;3.5;;;;;;;-3.86;88.73535;95580.19;;;;
2019/12/11 00:52:11;;;;;;;7.249999;3.25;;;;;;;-3.88;88.79102;95580.88;;;;
2019/12/11 00:53:12;;;;;;;7.249999;3.25;;;;;;;-3.88;88.79102;95580.88;;;;
2019/12/11 00:54:13;;;;;;;7.249999;3.25;;;;;;;-3.88;88.79102;95580.88;;;;
2019/12/11 00:55:14;;;;;;;7.249999;3.25;;;;;;;-3.88;88.79102;95580.88;;;;
2019/12/11 00:56:15;;;;;;;7.249999;3.25;;;;;;;-3.88;88.79102;95580.88;;;;
2019/12/11 00:57:16;;;;;;;7.249999;3.25;;;;;;;-3.88;88.79102;95580.88;;;;
2019/12/11 00:58:17;;;;;;;7.249999;3.25;;;;;;;-3.88;88.79102;95580.88;;;;
2019/12/11 00:59:18;;;;;;;7.249999;3.25;;;;;;;-3.88;88.79102;95580.88;;;;
2019/12/11 01:00:19;;;;;;;7.249999;3.25;;;;;;;-3.88;88.79102;95580.88;;;;
2019/12/11 01:01:21;;;;;;;7.249999;3.25;;;;;;;-3.88;88.79102;95580.88;;;;
2019/12/11 01:02:22;;;;;;;7.249999;3.25;;;;;;;-3.88;88.79102;95580.88;;;;
2019/12/11 01:03:23;;;;;;;7.7;3.45;;;;;;;-3.91;88.48828;95570.56;;;;
2019/12/11 01:04:25;;;;;;;7.7;3.45;;;;;;;-3.91;88.48828;95570.56;;;;
2019/12/11 01:05:26;;;;;;;7.7;3.45;;;;;;;-3.91;88.48828;95570.56;;;;
2019/12/11 01:06:27;;;;;;;7.7;3.45;;;;;;;-3.91;88.48828;95570.56;;;;
2019/12/11 01:07:28;;;;;;;7.7;3.45;;;;;;;-3.91;88.48828;95570.56;;;;
2019/12/11 01:08:29;;;;;;;7.7;3.45;;;;;;;-3.91;88.48828;95570.56;;;;
2019/12/11 01:09:30;;;;;;;7.7;3.45;;;;;;;-3.91;88.48828;95570.56;;;;
2019/12/11 01:10:31;;;;;;;7.7;3.45;;;;;;;-3.91;88.48828;95570.56;;;;
2019/12/11 01:11:32;;;;;;;7.7;3.45;;;;;;;-3.91;88.48828;95570.56;;;;
2019/12/11 01:12:33;;;;;;;7.7;3.45;;;;;;;-3.91;88.48828;95570.56;;;;
2019/12/11 01:13:35;;;;;;;7.05;3.55;;;;;;;-4.04;88.6748;95542.81;;;;
2019/12/11 01:14:36;;;;;;;7.05;3.55;;;;;;;-4.04;88.6748;95542.81;;;;
2019/12/11 01:15:49;;;;;;;7.05;3.55;;;;;;;-4.04;88.6748;95542.81;;;;
2019/12/11 01:17:13;;;;;;;7.05;3.55;;;;;;;-4.04;88.6748;95542.81;;;;
2019/12/11 01:23:24;;;;;;;7.05;3.55;;;;;;;-4.04;88.6748;95542.81;;;;
2019/12/11 01:24:26;;;;;;;8.700001;3.15;;;;;;;-4.03;88.56445;95503.63;;;;
2019/12/11 01:25:27;;;;;;;8.700001;3.15;;;;;;;-4.03;88.56445;95503.63;;;;
2019/12/11 01:26:28;;;;;;;8.700001;3.15;;;;;;;-4.03;88.56445;95503.63;;;;
2019/12/11 01:27:29;;;;;;;8.700001;3.15;;;;;;;-4.03;88.56445;95503.63;;;;
2019/12/11 01:28:30;;;;;;;8.700001;3.15;;;;;;;-4.03;88.56445;95503.63;;;;
2019/12/11 01:29:31;;;;;;;8.700001;3.15;;;;;;;-4.03;88.56445;95503.63;;;;
2019/12/11 01:30:32;;;;;;;8.700001;3.15;;;;;;;-4.03;88.56445;95503.63;;;;
2019/12/11 01:31:33;;;;;;;8.700001;3.15;;;;;;;-4.03;88.56445;95503.63;;;;
2019/12/11 01:32:34;;;;;;;8.700001;3.15;;;;;;;-4.03;88.56445;95503.63;;;;
2019/12/11 01:33:36;;;;;;;8.700001;3.15;;;;;;;-4.03;88.56445;95503.63;;;;
2019/12/11 01:34:37;;;;;;;7.900001;2.95;;;;;;;-4.11;88.47656;95486.36;;;;
2019/12/11 01:35:38;;;;;;;7.900001;2.95;;;;;;;-4.11;88.47656;95486.36;;;;
2019/12/11 01:36:39;;;;;;;7.900001;2.95;;;;;;;-4.11;88.47656;95486.36;;;;
2019/12/11 01:37:40;;;;;;;7.900001;2.95;;;;;;;-4.11;88.47656;95486.36;;;;
2019/12/11 01:38:41;;;;;;;7.900001;2.95;;;;;;;-4.11;88.47656;95486.36;;;;
2019/12/11 01:39:43;;;;;;;7.900001;2.95;;;;;;;-4.11;88.47656;95486.36;;;;
2019/12/11 01:40:44;;;;;;;7.900001;2.95;;;;;;;-4.11;88.47656;95486.36;;;;
2019/12/11 01:41:45;;;;;;;7.900001;2.95;;;;;;;-4.11;88.47656;95486.36;;;;
2019/12/11 01:42:46;;;;;;;7.900001;2.95;;;;;;;-4.11;88.47656;95486.36;;;;
2019/12/11 01:43:47;;;;;;;7.900001;2.95;;;;;;;-4.11;88.47656;95486.36;;;;
2019/12/11 01:44:48;;;;;;;7.900001;2.95;;;;;;;-4.11;88.47656;95486.36;;;;
2019/12/11 01:45:49;;;;;;;6.25;2.8;;;;;;;-4.21;88.54688;95474.52;;;;
2019/12/11 01:46:50;;;;;;;6.25;2.8;;;;;;;-4.21;88.54688;95474.52;;;;
2019/12/11 01:47:51;;;;;;;6.25;2.8;;;;;;;-4.21;88.54688;95474.52;;;;
2019/12/11 01:48:53;;;;;;;6.25;2.8;;;;;;;-4.21;88.54688;95474.52;;;;
2019/12/11 01:49:54;;;;;;;6.25;2.8;;;;;;;-4.21;88.54688;95474.52;;;;
2019/12/11 01:50:55;;;;;;;6.25;2.8;;;;;;;-4.21;88.54688;95474.52;;;;
2019/12/11 01:51:56;;;;;;;6.25;2.8;;;;;;;-4.21;88.54688;95474.52;;;;
2019/12/11 01:52:57;;;;;;;6.25;2.8;;;;;;;-4.21;88.54688;95474.52;;;;
2019/12/11 01:53:58;;;;;;;6.25;2.8;;;;;;;-4.21;88.54688;95474.52;;;;
2019/12/11 01:54:59;;;;;;;6.25;2.8;;;;;;;-4.21;88.54688;95474.52;;;;
2019/12/11 01:56:00;;;;;;;5.8;2.950001;;;;;;;-4.33;88.58496;95461.58;;;;
2019/12/11 01:57:01;;;;;;;5.8;2.950001;;;;;;;-4.33;88.58496;95461.58;;;;
2019/12/11 01:58:02;;;;;;;5.8;2.950001;;;;;;;-4.33;88.58496;95461.58;;;;
2019/12/11 01:59:03;;;;;;;5.8;2.950001;;;;;;;-4.33;88.58496;95461.58;;;;
2019/12/11 02:00:06;;;;;;;5.8;2.950001;;;;;;;-4.33;88.58496;95461.58;;;;
2019/12/11 02:01:12;;;;;;;5.8;2.950001;;;;;;;-4.33;88.58496;95461.58;;;;
2019/12/11 02:02:19;;;;;;;5.8;2.950001;;;;;;;-4.33;88.58496;95461.58;;;;
2019/12/11 02:03:25;;;;;;;5.8;2.950001;;;;;;;-4.33;88.58496;95461.58;;;;
2019/12/11 02:04:26;;;;;;;5.8;2.950001;;;;;;;-4.33;88.58496;95461.58;;;;
2019/12/11 02:05:28;;;;;;;5.8;2.950001;;;;;;;-4.33;88.58496;95461.58;;;;
2019/12/11 02:06:29;;;;;;;7.85;3.1;;;;;;;-4.47;88.51465;95451.06;;;;
2019/12/11 02:07:30;;;;;;;7.85;3.1;;;;;;;-4.47;88.51465;95451.06;;;;
2019/12/11 02:08:31;;;;;;;7.85;3.1;;;;;;;-4.47;88.51465;95451.06;;;;
2019/12/11 02:09:32;;;;;;;7.85;3.1;;;;;;;-4.47;88.51465;95451.06;;;;
2019/12/11 02:10:34;;;;;;;7.85;3.1;;;;;;;-4.47;88.51465;95451.06;;;;
2019/12/11 02:11:35;;;;;;;7.85;3.1;;;;;;;-4.47;88.51465;95451.06;;;;
2019/12/11 02:12:36;;;;;;;7.85;3.1;;;;;;;-4.47;88.51465;95451.06;;;;
2019/12/11 02:13:37;;;;;;;7.85;3.1;;;;;;;-4.47;88.51465;95451.06;;;;
2019/12/11 02:14:38;;;;;;;7.85;3.1;;;;;;;-4.47;88.51465;95451.06;;;;
2019/12/11 02:15:39;;;;;;;7.85;3.1;;;;;;;-4.47;88.51465;95451.06;;;;
2019/12/11 02:16:41;;;;;;;7.85;3.1;;;;;;;-4.47;88.51465;95451.06;;;;
2019/12/11 02:17:42;;;;;;;6.349999;2.6;;;;;;;-4.59;88.56055;95423.24;;;;
2019/12/11 02:18:43;;;;;;;6.349999;2.6;;;;;;;-4.59;88.56055;95423.24;;;;
2019/12/11 02:19:44;;;;;;;6.349999;2.6;;;;;;;-4.59;88.56055;95423.24;;;;
2019/12/11 02:20:45;;;;;;;6.349999;2.6;;;;;;;-4.59;88.56055;95423.24;;;;
2019/12/11 02:21:46;;;;;;;6.349999;2.6;;;;;;;-4.59;88.56055;95423.24;;;;
2019/12/11 02:22:48;;;;;;;6.349999;2.6;;;;;;;-4.59;88.56055;95423.24;;;;
2019/12/11 02:23:49;;;;;;;6.349999;2.6;;;;;;;-4.59;88.56055;95423.24;;;;
2019/12/11 02:24:50;;;;;;;6.349999;2.6;;;;;;;-4.59;88.56055;95423.24;;;;
2019/12/11 02:25:51;;;;;;;6.349999;2.6;;;;;;;-4.59;88.56055;95423.24;;;;
2019/12/11 02:26:52;;;;;;;6.349999;2.6;;;;;;;-4.59;88.56055;95423.24;;;;
2019/12/11 02:27:53;;;;;;;5.95;2.75;;;;;;;-4.69;88.5293;95407.9;;;;
2019/12/11 02:28:55;;;;;;;5.95;2.75;;;;;;;-4.69;88.5293;95407.9;;;;
2019/12/11 02:29:56;;;;;;;5.95;2.75;;;;;;;-4.69;88.5293;95407.9;;;;
2019/12/11 02:30:57;;;;;;;5.95;2.75;;;;;;;-4.69;88.5293;95407.9;;;;
2019/12/11 02:31:58;;;;;;;5.95;2.75;;;;;;;-4.69;88.5293;95407.9;;;;
2019/12/11 02:32:59;;;;;;;5.95;2.75;;;;;;;-4.69;88.5293;95407.9;;;;
2019/12/11 02:34:01;;;;;;;5.95;2.75;;;;;;;-4.69;88.5293;95407.9;;;;
2019/12/11 02:35:02;;;;;;;5.95;2.75;;;;;;;-4.69;88.5293;95407.9;;;;
2019/12/11 02:36:03;;;;;;;5.95;2.75;;;;;;;-4.69;88.5293;95407.9;;;;
2019/12/11 02:37:04;;;;;;;5.95;2.75;;;;;;;-4.69;88.5293;95407.9;;;;
2019/12/11 02:38:06;;;;;;;5.95;2.75;;;;;;;-4.69;88.5293;95407.9;;;;
2019/12/11 02:39:07;;;;;;;7;3.45;;;;;;;-4.78;88.48047;95399.95;;;;
2019/12/11 02:40:08;;;;;;;7;3.45;;;;;;;-4.78;88.48047;95399.95;;;;
2019/12/11 02:41:09;;;;;;;7;3.45;;;;;;;-4.78;88.48047;95399.95;;;;
2019/12/11 02:42:11;;;;;;;7;3.45;;;;;;;-4.78;88.48047;95399.95;;;;
2019/12/11 02:43:12;;;;;;;7;3.45;;;;;;;-4.78;88.48047;95399.95;;;;
2019/12/11 02:44:13;;;;;;;7;3.45;;;;;;;-4.78;88.48047;95399.95;;;;
2019/12/11 02:45:16;;;;;;;7;3.45;;;;;;;-4.78;88.48047;95399.95;;;;
2019/12/11 02:56:34;;;;;;;7.599999;3.1;;;;;;;-4.88;88.4502;95395.2;;;;
2019/12/11 02:57:35;;;;;;;7.599999;3.1;;;;;;;-4.88;88.4502;95395.2;;;;
2019/12/11 02:58:37;;;;;;;7.599999;3.1;;;;;;;-4.88;88.4502;95395.2;;;;
2019/12/11 02:59:38;;;;;;;8.5;3.149999;;;;;;;-4.95;88.41406;95373.52;;;;
2019/12/11 03:00:39;;;;;;;8.5;3.149999;;;;;;;-4.95;88.41406;95373.52;;;;
2019/12/11 03:01:40;;;;;;;8.5;3.149999;;;;;;;-4.95;88.41406;95373.52;;;;
2019/12/11 03:02:41;;;;;;;8.5;3.149999;;;;;;;-4.95;88.41406;95373.52;;;;
2019/12/11 03:03:43;;;;;;;8.5;3.149999;;;;;;;-4.95;88.41406;95373.52;;;;
2019/12/11 03:04:44;;;;;;;8.5;3.149999;;;;;;;-4.95;88.41406;95373.52;;;;
2019/12/11 03:05:45;;;;;;;8.5;3.149999;;;;;;;-4.95;88.41406;95373.52;;;;
2019/12/11 03:06:47;;;;;;;8.5;3.149999;;;;;;;-4.95;88.41406;95373.52;;;;
2019/12/11 03:07:48;;;;;;;8.5;3.149999;;;;;;;-4.95;88.41406;95373.52;;;;
2019/12/11 03:08:49;;;;;;;8.5;3.149999;;;;;;;-4.95;88.41406;95373.52;;;;
2019/12/11 03:09:50;;;;;;;8.5;3.149999;;;;;;;-4.95;88.41406;95373.52;;;;
2019/12/11 03:10:51;;;;;;;6.25;2.95;;;;;;;-4.92;88.55371;95348.16;;;;
2019/12/11 03:11:52;;;;;;;6.25;2.95;;;;;;;-4.92;88.55371;95348.16;;;;
2019/12/11 03:12:54;;;;;;;6.25;2.95;;;;;;;-4.92;88.55371;95348.16;;;;
2019/12/11 03:13:55;;;;;;;6.25;2.95;;;;;;;-4.92;88.55371;95348.16;;;;
2019/12/11 03:14:56;;;;;;;6.25;2.95;;;;;;;-4.92;88.55371;95348.16;;;;
2019/12/11 03:15:57;;;;;;;6.25;2.95;;;;;;;-4.92;88.55371;95348.16;;;;
2019/12/11 03:16:58;;;;;;;6.25;2.95;;;;;;;-4.92;88.55371;95348.16;;;;
2019/12/11 03:17:59;;;;;;;6.25;2.95;;;;;;;-4.92;88.55371;95348.16;;;;
2019/12/11 03:19:00;;;;;;;6.25;2.95;;;;;;;-4.92;88.55371;95348.16;;;;
2019/12/11 03:20:02;;;;;;;6.25;2.95;;;;;;;-4.92;88.55371;95348.16;;;;
2019/12/11 03:21:03;;;;;;;6.25;2.95;;;;;;;-4.92;88.55371;95348.16;;;;
2019/12/11 03:22:04;;;;;;;6.25;2.95;;;;;;;-4.92;88.55371;95348.16;;;;
2019/12/11 03:23:05;;;;;;;6.25;2.95;;;;;;;-4.92;88.55371;95348.16;;;;
2019/12/11 03:24:07;;;;;;;6.25;2.95;;;;;;;-4.92;88.55371;95348.16;;;;
2019/12/11 03:25:08;;;;;;;6.25;2.95;;;;;;;-4.92;88.55371;95348.16;;;;
2019/12/11 03:26:09;;;;;;;6.25;2.95;;;;;;;-4.92;88.55371;95348.16;;;;
2019/12/11 03:27:38;;;;;;;6.25;2.95;;;;;;;-4.92;88.55371;95348.16;;;;
2019/12/11 03:28:41;;;;;;;6.25;2.95;;;;;;;-4.92;88.55371;95348.16;;;;
2019/12/11 03:29:42;;;;;;;6.25;2.95;;;;;;;-4.92;88.55371;95348.16;;;;
2019/12/11 03:30:46;;;;;;;6.25;2.95;;;;;;;-4.92;88.55371;95348.16;;;;
2019/12/11 03:32:18;;;;;;;5.25;2.8;;;;;;;-4.81;87.81641;95321.73;;;;
2019/12/11 03:33:19;;;;;;;5.25;2.8;;;;;;;-4.81;87.81641;95321.73;;;;
2019/12/11 03:34:20;;;;;;;5.25;2.8;;;;;;;-4.81;87.81641;95321.73;;;;
2019/12/11 03:35:22;;;;;;;5.25;2.8;;;;;;;-4.81;87.81641;95321.73;;;;
2019/12/11 03:36:23;;;;;;;5.25;2.8;;;;;;;-4.81;87.81641;95321.73;;;;
2019/12/11 03:37:24;;;;;;;5.25;2.8;;;;;;;-4.81;87.81641;95321.73;;;;
2019/12/11 03:38:25;;;;;;;5.25;2.8;;;;;;;-4.81;87.81641;95321.73;;;;
2019/12/11 03:39:26;;;;;;;5.25;2.8;;;;;;;-4.81;87.81641;95321.73;;;;
2019/12/11 03:40:27;;;;;;;5.25;2.8;;;;;;;-4.81;87.81641;95321.73;;;;
2019/12/11 03:41:28;;;;;;;5.25;2.8;;;;;;;-4.81;87.81641;95321.73;;;;
2019/12/11 03:42:29;;;;;;;5.15;2.750001;;;;;;;-4.81;87.85742;95271.71;;;;
2019/12/11 03:43:33;;;;;;;5.15;2.750001;;;;;;;-4.81;87.85742;95271.71;;;;
2019/12/11 03:44:46;;;;;;;5.15;2.750001;;;;;;;-4.81;87.85742;95271.71;;;;
2019/12/11 03:45:51;;;;;;;5.15;2.750001;;;;;;;-4.81;87.85742;95271.71;;;;
2019/12/11 03:46:53;;;;;;;5.15;2.750001;;;;;;;-4.81;87.85742;95271.71;;;;
2019/12/11 03:47:58;;;;;;;5.15;2.750001;;;;;;;-4.81;87.85742;95271.71;;;;
2019/12/11 03:49:02;;;;;;;5.15;2.750001;;;;;;;-4.81;87.85742;95271.71;;;;
2019/12/11 03:50:03;;;;;;;5.15;2.750001;;;;;;;-4.81;87.85742;95271.71;;;;
2019/12/11 03:51:04;;;;;;;5.15;2.750001;;;;;;;-4.81;87.85742;95271.71;;;;
2019/12/11 03:52:07;;;;;;;5.15;2.750001;;;;;;;-4.81;87.85742;95271.71;;;;
2019/12/11 03:53:16;;;;;;;4.400001;2.4;;;;;;;-4.91;87.89941;95255.04;;;;
2019/12/11 03:54:18;;;;;;;4.400001;2.4;;;;;;;-4.91;87.89941;95255.04;;;;
2019/12/11 03:55:25;;;;;;;4.400001;2.4;;;;;;;-4.91;87.89941;95255.04;;;;
2019/12/11 03:56:30;;;;;;;4.400001;2.4;;;;;;;-4.91;87.89941;95255.04;;;;
2019/12/11 03:57:46;;;;;;;4.400001;2.4;;;;;;;-4.91;87.89941;95255.04;;;;
2019/12/11 04:02:12;;;;;;;4.400001;2.4;;;;;;;-4.91;87.89941;95255.04;;;;
2019/12/11 04:03:20;;;;;;;4.400001;2.4;;;;;;;-4.91;87.89941;95255.04;;;;
2019/12/11 04:04:34;;;;;;;4.3;2.6;;;;;;;-5;88.06348;95233.61;;;;
2019/12/11 04:05:41;;;;;;;4.3;2.6;;;;;;;-5;88.06348;95233.61;;;;
2019/12/11 04:06:45;;;;;;;4.3;2.6;;;;;;;-5;88.06348;95233.61;;;;
2019/12/11 04:07:53;;;;;;;4.3;2.6;;;;;;;-5;88.06348;95233.61;;;;
2019/12/11 04:08:54;;;;;;;4.3;2.6;;;;;;;-5;88.06348;95233.61;;;;
2019/12/11 04:09:55;;;;;;;4.3;2.6;;;;;;;-5;88.06348;95233.61;;;;
2019/12/11 04:10:58;;;;;;;4.3;2.6;;;;;;;-5;88.06348;95233.61;;;;
2019/12/11 04:11:59;;;;;;;4.3;2.6;;;;;;;-5;88.06348;95233.61;;;;
2019/12/11 04:13:02;;;;;;;4.3;2.6;;;;;;;-5;88.06348;95233.61;;;;
2019/12/11 04:14:04;;;;;;;5.15;2.6;;;;;;;-5.06;88.18457;95221.01;;;;
2019/12/11 04:15:05;;;;;;;5.15;2.6;;;;;;;-5.06;88.18457;95221.01;;;;
2019/12/11 04:16:06;;;;;;;5.15;2.6;;;;;;;-5.06;88.18457;95221.01;;;;
2019/12/11 04:17:07;;;;;;;5.15;2.6;;;;;;;-5.06;88.18457;95221.01;;;;
2019/12/11 04:18:08;;;;;;;5.15;2.6;;;;;;;-5.06;88.18457;95221.01;;;;
2019/12/11 04:19:09;;;;;;;5.15;2.6;;;;;;;-5.06;88.18457;95221.01;;;;
2019/12/11 04:20:11;;;;;;;5.15;2.6;;;;;;;-5.06;88.18457;95221.01;;;;
2019/12/11 04:21:12;;;;;;;5.15;2.6;;;;;;;-5.06;88.18457;95221.01;;;;
2019/12/11 04:22:13;;;;;;;5.15;2.6;;;;;;;-5.06;88.18457;95221.01;;;;
2019/12/11 04:23:14;;;;;;;5.15;2.6;;;;;;;-5.06;88.18457;95221.01;;;;
2019/12/11 04:24:15;;;;;;;5.15;2.6;;;;;;;-5.06;88.18457;95221.01;;;;
2019/12/11 04:25:17;;;;;;;4.7;2.65;;;;;;;-5.16;88.14453;95205.66;;;;
2019/12/11 04:26:18;;;;;;;4.7;2.65;;;;;;;-5.16;88.14453;95205.66;;;;
2019/12/11 04:27:19;;;;;;;4.7;2.65;;;;;;;-5.16;88.14453;95205.66;;;;
2019/12/11 04:28:21;;;;;;;4.7;2.65;;;;;;;-5.16;88.14453;95205.66;;;;
2019/12/11 04:29:22;;;;;;;4.7;2.65;;;;;;;-5.16;88.14453;95205.66;;;;
2019/12/11 04:30:27;;;;;;;4.7;2.65;;;;;;;-5.16;88.14453;95205.66;;;;
2019/12/11 04:31:30;;;;;;;4.7;2.65;;;;;;;-5.16;88.14453;95205.66;;;;
2019/12/11 04:32:40;;;;;;;4.7;2.65;;;;;;;-5.16;88.14453;95205.66;;;;
2019/12/11 04:33:43;;;;;;;4.7;2.65;;;;;;;-5.16;88.14453;95205.66;;;;
2019/12/11 04:34:45;;;;;;;4.7;2.65;;;;;;;-5.16;88.14453;95205.66;;;;
2019/12/11 04:35:47;;;;;;;5.5;2.7;;;;;;;-5.17;88.04004;95193.5;;;;
2019/12/11 04:36:49;;;;;;;5.5;2.7;;;;;;;-5.17;88.04004;95193.5;;;;
2019/12/11 04:37:57;;;;;;;5.5;2.7;;;;;;;-5.17;88.04004;95193.5;;;;
2019/12/11 04:39:03;;;;;;;5.5;2.7;;;;;;;-5.17;88.04004;95193.5;;;;
2019/12/11 04:40:04;;;;;;;5.5;2.7;;;;;;;-5.17;88.04004;95193.5;;;;
2019/12/11 04:41:06;;;;;;;5.5;2.7;;;;;;;-5.17;88.04004;95193.5;;;;
2019/12/11 04:42:09;;;;;;;5.5;2.7;;;;;;;-5.17;88.04004;95193.5;;;;
2019/12/11 04:43:10;;;;;;;5.5;2.7;;;;;;;-5.17;88.04004;95193.5;;;;
2019/12/11 04:44:11;;;;;;;5.5;2.7;;;;;;;-5.17;88.04004;95193.5;;;;
2019/12/11 04:45:12;;;;;;;5.5;2.7;;;;;;;-5.17;88.04004;95193.5;;;;
2019/12/11 04:46:17;;;;;;;4.55;2.75;;;;;;;-5.21;87.79395;95178.54;;;;
2019/12/11 04:50:53;;;;;;;4.55;2.75;;;;;;;-5.21;87.79395;95178.54;;;;
2019/12/11 04:51:56;;;;;;;4.55;2.75;;;;;;;-5.21;87.79395;95178.54;;;;
2019/12/11 04:52:57;;;;;;;4.55;2.75;;;;;;;-5.21;87.79395;95178.54;;;;
2019/12/11 04:53:58;;;;;;;4.55;2.75;;;;;;;-5.21;87.79395;95178.54;;;;
2019/12/11 04:54:59;;;;;;;4.55;2.75;;;;;;;-5.21;87.79395;95178.54;;;;
2019/12/11 04:56:00;;;;;;;4.55;2.75;;;;;;;-5.21;87.79395;95178.54;;;;
2019/12/11 04:57:01;;;;;;;4.450001;2.85;;;;;;;-5.26;87.65039;95165.41;;;;
2019/12/11 04:58:03;;;;;;;4.450001;2.85;;;;;;;-5.26;87.65039;95165.41;;;;
2019/12/11 04:59:04;;;;;;;4.450001;2.85;;;;;;;-5.26;87.65039;95165.41;;;;
2019/12/11 05:00:05;;;;;;;4.450001;2.85;;;;;;;-5.26;87.65039;95165.41;;;;
2019/12/11 05:01:06;;;;;;;4.450001;2.85;;;;;;;-5.26;87.65039;95165.41;;;;
2019/12/11 05:02:07;;;;;;;4.450001;2.85;;;;;;;-5.26;87.65039;95165.41;;;;
2019/12/11 05:03:08;;;;;;;4.450001;2.85;;;;;;;-5.26;87.65039;95165.41;;;;
2019/12/11 05:04:09;;;;;;;4.450001;2.85;;;;;;;-5.26;87.65039;95165.41;;;;
2019/12/11 05:05:10;;;;;;;4.450001;2.85;;;;;;;-5.26;87.65039;95165.41;;;;
2019/12/11 05:06:12;;;;;;;4.450001;2.85;;;;;;;-5.26;87.65039;95165.41;;;;
2019/12/11 05:07:13;;;;;;;4.85;2.900001;;;;;;;-5.31;87.72266;95160.66;;;;
2019/12/11 05:08:14;;;;;;;4.85;2.900001;;;;;;;-5.31;87.72266;95160.66;;;;
2019/12/11 05:09:15;;;;;;;4.85;2.900001;;;;;;;-5.31;87.72266;95160.66;;;;
2019/12/11 05:10:16;;;;;;;4.85;2.900001;;;;;;;-5.31;87.72266;95160.66;;;;
2019/12/11 05:11:17;;;;;;;4.85;2.900001;;;;;;;-5.31;87.72266;95160.66;;;;
2019/12/11 05:12:19;;;;;;;4.85;2.900001;;;;;;;-5.31;87.72266;95160.66;;;;
2019/12/11 05:13:20;;;;;;;4.85;2.900001;;;;;;;-5.31;87.72266;95160.66;;;;
2019/12/11 05:14:21;;;;;;;4.85;2.900001;;;;;;;-5.31;87.72266;95160.66;;;;
2019/12/11 05:15:22;;;;;;;4.85;2.900001;;;;;;;-5.31;87.72266;95160.66;;;;
2019/12/11 05:16:23;;;;;;;4.85;2.900001;;;;;;;-5.31;87.72266;95160.66;;;;
2019/12/11 05:17:24;;;;;;;4.85;2.900001;;;;;;;-5.31;87.72266;95160.66;;;;
2019/12/11 05:18:25;;;;;;;4.05;2.45;;;;;;;-5.23;87.87012;95138.9;;;;
2019/12/11 05:19:26;;;;;;;4.05;2.45;;;;;;;-5.23;87.87012;95138.9;;;;
2019/12/11 05:20:27;;;;;;;4.05;2.45;;;;;;;-5.23;87.87012;95138.9;;;;
2019/12/11 05:21:28;;;;;;;4.05;2.45;;;;;;;-5.23;87.87012;95138.9;;;;
2019/12/11 05:22:29;;;;;;;4.05;2.45;;;;;;;-5.23;87.87012;95138.9;;;;
2019/12/11 05:23:30;;;;;;;4.05;2.45;;;;;;;-5.23;87.87012;95138.9;;;;
2019/12/11 05:24:32;;;;;;;4.05;2.45;;;;;;;-5.23;87.87012;95138.9;;;;
2019/12/11 05:25:35;;;;;;;4.05;2.45;;;;;;;-5.23;87.87012;95138.9;;;;
2019/12/11 05:26:36;;;;;;;4.05;2.45;;;;;;;-5.23;87.87012;95138.9;;;;
2019/12/11 05:27:38;;;;;;;4.05;2.45;;;;;;;-5.23;87.87012;95138.9;;;;
2019/12/11 05:28:39;;;;;;;5.199999;2.65;;;;;;;-5.11;88.22656;95135.52;;;;
2019/12/11 05:29:40;;;;;;;5.199999;2.65;;;;;;;-5.11;88.22656;95135.52;;;;
2019/12/11 05:30:41;;;;;;;5.199999;2.65;;;;;;;-5.11;88.22656;95135.52;;;;
2019/12/11 05:31:42;;;;;;;5.199999;2.65;;;;;;;-5.11;88.22656;95135.52;;;;
2019/12/11 05:32:43;;;;;;;5.199999;2.65;;;;;;;-5.11;88.22656;95135.52;;;;
2019/12/11 05:33:44;;;;;;;5.199999;2.65;;;;;;;-5.11;88.22656;95135.52;;;;
2019/12/11 05:34:45;;;;;;;5.199999;2.65;;;;;;;-5.11;88.22656;95135.52;;;;
2019/12/11 05:35:48;;;;;;;5.199999;2.65;;;;;;;-5.11;88.22656;95135.52;;;;
2019/12/11 05:36:49;;;;;;;5.199999;2.65;;;;;;;-5.11;88.22656;95135.52;;;;
2019/12/11 05:37:51;;;;;;;5.199999;2.65;;;;;;;-5.11;88.22656;95135.52;;;;
2019/12/11 05:38:52;;;;;;;5.45;2.2;;;;;;;-5.09;88.13965;95139.64;;;;
2019/12/11 05:39:53;;;;;;;5.45;2.2;;;;;;;-5.09;88.13965;95139.64;;;;
2019/12/11 05:40:54;;;;;;;5.45;2.2;;;;;;;-5.09;88.13965;95139.64;;;;
2019/12/11 05:41:55;;;;;;;5.45;2.2;;;;;;;-5.09;88.13965;95139.64;;;;
2019/12/11 05:42:56;;;;;;;5.45;2.2;;;;;;;-5.09;88.13965;95139.64;;;;
2019/12/11 05:43:57;;;;;;;5.45;2.2;;;;;;;-5.09;88.13965;95139.64;;;;
2019/12/11 05:44:58;;;;;;;5.45;2.2;;;;;;;-5.09;88.13965;95139.64;;;;
2019/12/11 05:45:59;;;;;;;5.45;2.2;;;;;;;-5.09;88.13965;95139.64;;;;
2019/12/11 05:47:00;;;;;;;5.45;2.2;;;;;;;-5.09;88.13965;95139.64;;;;
2019/12/11 05:48:01;;;;;;;5.45;2.2;;;;;;;-5.09;88.13965;95139.64;;;;
2019/12/11 05:49:03;;;;;;;5.45;2.2;;;;;;;-5.09;88.13965;95139.64;;;;
2019/12/11 05:50:04;;;;;;;7.05;2.55;;;;;;;-5.13;87.97559;95124.72;;;;
2019/12/11 05:51:05;;;;;;;7.05;2.55;;;;;;;-5.13;87.97559;95124.72;;;;
2019/12/11 05:52:06;;;;;;;7.05;2.55;;;;;;;-5.13;87.97559;95124.72;;;;
2019/12/11 05:53:07;;;;;;;7.05;2.55;;;;;;;-5.13;87.97559;95124.72;;;;
2019/12/11 05:54:08;;;;;;;7.05;2.55;;;;;;;-5.13;87.97559;95124.72;;;;
2019/12/11 05:55:09;;;;;;;7.05;2.55;;;;;;;-5.13;87.97559;95124.72;;;;
2019/12/11 05:56:10;;;;;;;7.05;2.55;;;;;;;-5.13;87.97559;95124.72;;;;
2019/12/11 05:57:11;;;;;;;7.05;2.55;;;;;;;-5.13;87.97559;95124.72;;;;
2019/12/11 05:58:12;;;;;;;7.05;2.55;;;;;;;-5.13;87.97559;95124.72;;;;
2019/12/11 05:59:14;;;;;;;7.05;2.55;;;;;;;-5.13;87.97559;95124.72;;;;
2019/12/11 06:00:15;;;;;;;4.4;2.4;;;;;;;-5.18;87.91309;95127.86;;;;
2019/12/11 06:01:16;;;;;;;4.4;2.4;;;;;;;-5.18;87.91309;95127.86;;;;
2019/12/11 06:02:17;;;;;;;4.4;2.4;;;;;;;-5.18;87.91309;95127.86;;;;
2019/12/11 06:03:18;;;;;;;4.4;2.4;;;;;;;-5.18;87.91309;95127.86;;;;
2019/12/11 06:04:19;;;;;;;4.4;2.4;;;;;;;-5.18;87.91309;95127.86;;;;
2019/12/11 06:05:20;;;;;;;4.4;2.4;;;;;;;-5.18;87.91309;95127.86;;;;
2019/12/11 06:06:21;;;;;;;4.4;2.4;;;;;;;-5.18;87.91309;95127.86;;;;
2019/12/11 06:07:22;;;;;;;4.4;2.4;;;;;;;-5.18;87.91309;95127.86;;;;
2019/12/11 06:08:23;;;;;;;4.4;2.4;;;;;;;-5.18;87.91309;95127.86;;;;
2019/12/11 06:09:24;;;;;;;4.4;2.4;;;;;;;-5.18;87.91309;95127.86;;;;
2019/12/11 06:10:25;;;;;;;4.4;2.4;;;;;;;-5.18;87.91309;95127.86;;;;
2019/12/11 06:11:26;;;;;;;5.9;2.85;;;;;;;-5.24;88.00391;95122.27;;;;
2019/12/11 06:12:28;;;;;;;5.9;2.85;;;;;;;-5.24;88.00391;95122.27;;;;
2019/12/11 06:13:29;;;;;;;5.9;2.85;;;;;;;-5.24;88.00391;95122.27;;;;
2019/12/11 06:14:30;;;;;;;5.9;2.85;;;;;;;-5.24;88.00391;95122.27;;;;
2019/12/11 06:15:31;;;;;;;5.9;2.85;;;;;;;-5.24;88.00391;95122.27;;;;
2019/12/11 06:16:32;;;;;;;5.9;2.85;;;;;;;-5.24;88.00391;95122.27;;;;